sensor_id;sensor_type;location;lat;lon;timestamp;P1;durP1;ratioP1;P2;durP2;ratioP2
75758;SDS011;64371;47.566;19.086;2023-07-29T00:02:48;7.45;;;3.95;;
75758;SDS011;64371;47.566;19.086;2023-07-29T00:05:51;5.30;;;4.00;;
75758;SDS011;64371;47.566;19.086;2023-07-29T00:08:53;5.30;;;3.90;;
75758;SDS011;64371;47.566;19.086;2023-07-29T00:11:56;6.68;;;3.67;;
75758;SDS011;64371;47.566;19.086;2023-07-29T00:14:58;5.83;;;3.70;;
75758;SDS011;64371;47.566;19.086;2023-07-29T00:18:01;5.68;;;3.70;;
75758;SDS011;64371;47.566;19.086;2023-07-29T00:21:03;4.68;;;3.50;;
75758;SDS011;64371;47.566;19.086;2023-07-29T00:24:05;5.00;;;3.83;;
75758;SDS011;64371;47.566;19.086;2023-07-29T00:27:08;5.65;;;4.22;;
75758;SDS011;64371;47.566;19.086;2023-07-29T00:30:10;5.43;;;3.80;;
75758;SDS011;64371;47.566;19.086;2023-07-29T00:33:13;5.05;;;4.00;;
75758;SDS011;64371;47.566;19.086;2023-07-29T00:36:16;7.32;;;3.42;;
75758;SDS011;64371;47.566;19.086;2023-07-29T00:39:19;7.07;;;3.63;;
75758;SDS011;64371;47.566;19.086;2023-07-29T00:42:22;4.45;;;3.35;;
75758;SDS011;64371;47.566;19.086;2023-07-29T00:45:24;5.80;;;3.90;;
75758;SDS011;64371;47.566;19.086;2023-07-29T00:48:28;14.45;;;3.65;;
75758;SDS011;64371;47.566;19.086;2023-07-29T00:51:30;9.63;;;3.75;;
75758;SDS011;64371;47.566;19.086;2023-07-29T00:54:32;6.80;;;4.18;;
75758;SDS011;64371;47.566;19.086;2023-07-29T00:57:35;8.00;;;3.40;;
75758;SDS011;64371;47.566;19.086;2023-07-29T01:00:39;7.03;;;3.97;;
75758;SDS011;64371;47.566;19.086;2023-07-29T01:03:42;8.00;;;3.28;;
75758;SDS011;64371;47.566;19.086;2023-07-29T01:06:53;6.70;;;3.20;;
75758;SDS011;64371;47.566;19.086;2023-07-29T01:13:19;5.75;;;3.67;;
75758;SDS011;64371;47.566;19.086;2023-07-29T01:16:31;5.33;;;3.87;;
75758;SDS011;64371;47.566;19.086;2023-07-29T01:19:42;5.82;;;3.97;;
75758;SDS011;64371;47.566;19.086;2023-07-29T01:22:57;6.88;;;4.22;;
75758;SDS011;64371;47.566;19.086;2023-07-29T01:26:00;8.88;;;4.60;;
75758;SDS011;64371;47.566;19.086;2023-07-29T01:29:02;5.32;;;4.43;;
75758;SDS011;64371;47.566;19.086;2023-07-29T01:32:07;5.53;;;3.97;;
75758;SDS011;64371;47.566;19.086;2023-07-29T01:35:24;5.43;;;4.00;;
75758;SDS011;64371;47.566;19.086;2023-07-29T01:38:35;6.57;;;4.22;;
75758;SDS011;64371;47.566;19.086;2023-07-29T01:41:40;6.50;;;4.30;;
75758;SDS011;64371;47.566;19.086;2023-07-29T01:44:44;7.40;;;4.50;;
75758;SDS011;64371;47.566;19.086;2023-07-29T01:47:47;7.20;;;4.37;;
75758;SDS011;64371;47.566;19.086;2023-07-29T01:50:50;5.32;;;4.15;;
75758;SDS011;64371;47.566;19.086;2023-07-29T01:53:52;7.47;;;4.40;;
75758;SDS011;64371;47.566;19.086;2023-07-29T01:56:55;4.82;;;4.32;;
75758;SDS011;64371;47.566;19.086;2023-07-29T01:59:58;6.57;;;4.80;;
75758;SDS011;64371;47.566;19.086;2023-07-29T02:03:01;6.83;;;3.93;;
75758;SDS011;64371;47.566;19.086;2023-07-29T02:06:03;8.73;;;4.57;;
75758;SDS011;64371;47.566;19.086;2023-07-29T02:09:06;8.52;;;4.90;;
75758;SDS011;64371;47.566;19.086;2023-07-29T02:12:08;7.20;;;4.70;;
75758;SDS011;64371;47.566;19.086;2023-07-29T02:15:12;6.00;;;4.07;;
75758;SDS011;64371;47.566;19.086;2023-07-29T02:18:14;6.33;;;3.67;;
75758;SDS011;64371;47.566;19.086;2023-07-29T02:21:16;5.30;;;3.85;;
75758;SDS011;64371;47.566;19.086;2023-07-29T02:24:19;6.13;;;4.13;;
75758;SDS011;64371;47.566;19.086;2023-07-29T02:27:21;5.05;;;3.70;;
75758;SDS011;64371;47.566;19.086;2023-07-29T02:30:24;8.13;;;4.03;;
75758;SDS011;64371;47.566;19.086;2023-07-29T02:33:27;7.30;;;4.10;;
75758;SDS011;64371;47.566;19.086;2023-07-29T02:36:29;8.98;;;4.25;;
75758;SDS011;64371;47.566;19.086;2023-07-29T02:39:32;7.60;;;3.65;;
75758;SDS011;64371;47.566;19.086;2023-07-29T02:42:35;11.02;;;4.22;;
75758;SDS011;64371;47.566;19.086;2023-07-29T02:45:37;6.28;;;3.88;;
75758;SDS011;64371;47.566;19.086;2023-07-29T02:48:40;6.60;;;4.07;;
75758;SDS011;64371;47.566;19.086;2023-07-29T02:51:44;5.18;;;3.83;;
75758;SDS011;64371;47.566;19.086;2023-07-29T02:54:46;5.93;;;3.63;;
75758;SDS011;64371;47.566;19.086;2023-07-29T02:57:49;4.38;;;3.58;;
75758;SDS011;64371;47.566;19.086;2023-07-29T03:00:51;9.38;;;3.92;;
75758;SDS011;64371;47.566;19.086;2023-07-29T03:03:54;9.23;;;3.50;;
75758;SDS011;64371;47.566;19.086;2023-07-29T03:06:56;5.53;;;3.65;;
75758;SDS011;64371;47.566;19.086;2023-07-29T03:10:00;6.00;;;3.35;;
75758;SDS011;64371;47.566;19.086;2023-07-29T03:13:02;6.40;;;3.22;;
75758;SDS011;64371;47.566;19.086;2023-07-29T03:16:09;4.85;;;2.95;;
75758;SDS011;64371;47.566;19.086;2023-07-29T03:19:15;5.23;;;3.10;;
75758;SDS011;64371;47.566;19.086;2023-07-29T03:22:18;4.55;;;3.13;;
75758;SDS011;64371;47.566;19.086;2023-07-29T03:25:23;6.78;;;3.50;;
75758;SDS011;64371;47.566;19.086;2023-07-29T03:28:29;6.00;;;3.40;;
75758;SDS011;64371;47.566;19.086;2023-07-29T03:31:34;6.78;;;3.65;;
75758;SDS011;64371;47.566;19.086;2023-07-29T03:34:37;5.57;;;3.27;;
75758;SDS011;64371;47.566;19.086;2023-07-29T03:37:40;5.60;;;3.20;;
75758;SDS011;64371;47.566;19.086;2023-07-29T03:40:43;4.15;;;3.03;;
75758;SDS011;64371;47.566;19.086;2023-07-29T03:43:46;4.68;;;2.95;;
75758;SDS011;64371;47.566;19.086;2023-07-29T03:46:49;6.70;;;3.30;;
75758;SDS011;64371;47.566;19.086;2023-07-29T03:49:51;6.17;;;4.20;;
75758;SDS011;64371;47.566;19.086;2023-07-29T03:52:56;7.53;;;3.53;;
75758;SDS011;64371;47.566;19.086;2023-07-29T03:55:59;4.30;;;3.30;;
75758;SDS011;64371;47.566;19.086;2023-07-29T03:59:05;10.00;;;4.45;;
75758;SDS011;64371;47.566;19.086;2023-07-29T04:02:08;5.32;;;3.40;;
75758;SDS011;64371;47.566;19.086;2023-07-29T04:05:11;6.03;;;3.63;;
75758;SDS011;64371;47.566;19.086;2023-07-29T04:08:14;7.07;;;4.43;;
75758;SDS011;64371;47.566;19.086;2023-07-29T04:11:16;7.07;;;3.95;;
75758;SDS011;64371;47.566;19.086;2023-07-29T04:14:19;7.60;;;4.28;;
75758;SDS011;64371;47.566;19.086;2023-07-29T04:17:21;7.18;;;4.53;;
75758;SDS011;64371;47.566;19.086;2023-07-29T04:20:24;7.17;;;4.20;;
75758;SDS011;64371;47.566;19.086;2023-07-29T04:23:26;8.65;;;4.85;;
75758;SDS011;64371;47.566;19.086;2023-07-29T04:26:28;6.35;;;4.30;;
75758;SDS011;64371;47.566;19.086;2023-07-29T04:29:31;8.23;;;4.50;;
75758;SDS011;64371;47.566;19.086;2023-07-29T04:32:33;7.97;;;4.47;;
75758;SDS011;64371;47.566;19.086;2023-07-29T04:35:36;6.37;;;4.13;;
75758;SDS011;64371;47.566;19.086;2023-07-29T04:38:38;5.75;;;4.18;;
75758;SDS011;64371;47.566;19.086;2023-07-29T04:41:40;9.00;;;4.35;;
75758;SDS011;64371;47.566;19.086;2023-07-29T04:44:43;7.72;;;4.30;;
75758;SDS011;64371;47.566;19.086;2023-07-29T04:47:45;4.45;;;3.80;;
75758;SDS011;64371;47.566;19.086;2023-07-29T04:50:48;7.40;;;3.93;;
75758;SDS011;64371;47.566;19.086;2023-07-29T04:53:50;9.68;;;3.95;;
75758;SDS011;64371;47.566;19.086;2023-07-29T04:56:53;6.03;;;3.60;;
75758;SDS011;64371;47.566;19.086;2023-07-29T04:59:55;4.35;;;3.50;;
75758;SDS011;64371;47.566;19.086;2023-07-29T05:02:58;6.93;;;3.80;;
75758;SDS011;64371;47.566;19.086;2023-07-29T05:06:00;7.43;;;3.50;;
75758;SDS011;64371;47.566;19.086;2023-07-29T05:09:16;5.28;;;3.42;;
75758;SDS011;64371;47.566;19.086;2023-07-29T05:12:20;7.70;;;3.72;;
75758;SDS011;64371;47.566;19.086;2023-07-29T05:15:22;6.60;;;3.42;;
75758;SDS011;64371;47.566;19.086;2023-07-29T05:18:24;8.48;;;3.25;;
75758;SDS011;64371;47.566;19.086;2023-07-29T05:21:27;4.33;;;3.23;;
75758;SDS011;64371;47.566;19.086;2023-07-29T05:24:29;7.00;;;3.00;;
75758;SDS011;64371;47.566;19.086;2023-07-29T05:27:32;3.95;;;3.13;;
75758;SDS011;64371;47.566;19.086;2023-07-29T05:30:34;4.70;;;2.97;;
75758;SDS011;64371;47.566;19.086;2023-07-29T05:33:41;3.83;;;3.25;;
75758;SDS011;64371;47.566;19.086;2023-07-29T05:36:43;7.33;;;3.30;;
75758;SDS011;64371;47.566;19.086;2023-07-29T05:39:45;4.78;;;3.40;;
75758;SDS011;64371;47.566;19.086;2023-07-29T05:42:49;6.53;;;3.10;;
75758;SDS011;64371;47.566;19.086;2023-07-29T05:45:52;4.65;;;3.28;;
75758;SDS011;64371;47.566;19.086;2023-07-29T05:48:55;4.75;;;3.25;;
75758;SDS011;64371;47.566;19.086;2023-07-29T05:51:57;5.63;;;4.30;;
75758;SDS011;64371;47.566;19.086;2023-07-29T05:55:00;5.07;;;3.42;;
75758;SDS011;64371;47.566;19.086;2023-07-29T05:58:03;5.30;;;3.53;;
75758;SDS011;64371;47.566;19.086;2023-07-29T06:01:05;8.75;;;4.55;;
75758;SDS011;64371;47.566;19.086;2023-07-29T06:04:08;7.43;;;4.30;;
75758;SDS011;64371;47.566;19.086;2023-07-29T06:07:10;5.97;;;3.60;;
75758;SDS011;64371;47.566;19.086;2023-07-29T06:10:14;5.07;;;3.45;;
75758;SDS011;64371;47.566;19.086;2023-07-29T06:13:21;4.97;;;3.25;;
75758;SDS011;64371;47.566;19.086;2023-07-29T06:16:24;4.50;;;2.90;;
75758;SDS011;64371;47.566;19.086;2023-07-29T06:19:26;4.25;;;2.70;;
75758;SDS011;64371;47.566;19.086;2023-07-29T06:22:29;5.33;;;4.10;;
75758;SDS011;64371;47.566;19.086;2023-07-29T06:25:31;3.85;;;2.80;;
75758;SDS011;64371;47.566;19.086;2023-07-29T06:28:34;3.92;;;2.95;;
75758;SDS011;64371;47.566;19.086;2023-07-29T06:31:36;4.20;;;2.78;;
75758;SDS011;64371;47.566;19.086;2023-07-29T06:34:39;6.40;;;2.83;;
75758;SDS011;64371;47.566;19.086;2023-07-29T06:37:41;3.83;;;2.90;;
75758;SDS011;64371;47.566;19.086;2023-07-29T06:40:43;4.93;;;3.00;;
75758;SDS011;64371;47.566;19.086;2023-07-29T06:43:46;3.15;;;2.63;;
75758;SDS011;64371;47.566;19.086;2023-07-29T06:46:48;3.92;;;2.80;;
75758;SDS011;64371;47.566;19.086;2023-07-29T06:49:51;5.05;;;2.90;;
75758;SDS011;64371;47.566;19.086;2023-07-29T06:52:55;3.90;;;2.73;;
75758;SDS011;64371;47.566;19.086;2023-07-29T06:55:58;4.22;;;2.80;;
75758;SDS011;64371;47.566;19.086;2023-07-29T06:59:00;3.85;;;2.70;;
75758;SDS011;64371;47.566;19.086;2023-07-29T07:02:03;5.05;;;3.47;;
75758;SDS011;64371;47.566;19.086;2023-07-29T07:05:05;3.20;;;2.45;;
75758;SDS011;64371;47.566;19.086;2023-07-29T07:08:08;3.20;;;2.60;;
75758;SDS011;64371;47.566;19.086;2023-07-29T07:11:10;5.80;;;2.80;;
75758;SDS011;64371;47.566;19.086;2023-07-29T07:14:13;4.10;;;2.53;;
75758;SDS011;64371;47.566;19.086;2023-07-29T07:17:15;2.60;;;2.40;;
75758;SDS011;64371;47.566;19.086;2023-07-29T07:20:19;4.53;;;2.90;;
75758;SDS011;64371;47.566;19.086;2023-07-29T07:23:22;4.73;;;3.03;;
75758;SDS011;64371;47.566;19.086;2023-07-29T07:26:24;4.35;;;3.00;;
75758;SDS011;64371;47.566;19.086;2023-07-29T07:29:26;5.80;;;2.60;;
75758;SDS011;64371;47.566;19.086;2023-07-29T07:32:29;4.13;;;3.10;;
75758;SDS011;64371;47.566;19.086;2023-07-29T07:35:31;5.80;;;3.08;;
75758;SDS011;64371;47.566;19.086;2023-07-29T07:38:34;3.13;;;2.70;;
75758;SDS011;64371;47.566;19.086;2023-07-29T07:41:36;3.85;;;2.55;;
75758;SDS011;64371;47.566;19.086;2023-07-29T07:44:42;3.00;;;2.70;;
75758;SDS011;64371;47.566;19.086;2023-07-29T07:47:45;3.00;;;2.70;;
75758;SDS011;64371;47.566;19.086;2023-07-29T07:50:47;3.10;;;2.33;;
75758;SDS011;64371;47.566;19.086;2023-07-29T07:53:49;5.43;;;2.43;;
75758;SDS011;64371;47.566;19.086;2023-07-29T07:56:52;2.83;;;2.50;;
75758;SDS011;64371;47.566;19.086;2023-07-29T07:59:54;4.90;;;2.50;;
75758;SDS011;64371;47.566;19.086;2023-07-29T08:02:56;2.67;;;2.13;;
75758;SDS011;64371;47.566;19.086;2023-07-29T08:05:59;3.00;;;2.42;;
75758;SDS011;64371;47.566;19.086;2023-07-29T08:09:02;3.73;;;3.00;;
75758;SDS011;64371;47.566;19.086;2023-07-29T08:12:04;2.97;;;2.65;;
75758;SDS011;64371;47.566;19.086;2023-07-29T08:15:07;4.63;;;2.85;;
75758;SDS011;64371;47.566;19.086;2023-07-29T08:18:09;3.55;;;2.50;;
75758;SDS011;64371;47.566;19.086;2023-07-29T08:21:11;3.13;;;2.83;;
75758;SDS011;64371;47.566;19.086;2023-07-29T08:24:14;3.60;;;2.80;;
75758;SDS011;64371;47.566;19.086;2023-07-29T08:27:16;3.88;;;2.45;;
75758;SDS011;64371;47.566;19.086;2023-07-29T08:30:19;6.25;;;2.88;;
75758;SDS011;64371;47.566;19.086;2023-07-29T08:33:21;4.55;;;2.50;;
75758;SDS011;64371;47.566;19.086;2023-07-29T08:36:24;4.32;;;2.28;;
75758;SDS011;64371;47.566;19.086;2023-07-29T08:39:26;3.63;;;1.87;;
75758;SDS011;64371;47.566;19.086;2023-07-29T08:42:31;4.28;;;2.15;;
75758;SDS011;64371;47.566;19.086;2023-07-29T08:45:34;2.50;;;1.80;;
75758;SDS011;64371;47.566;19.086;2023-07-29T08:48:40;1.70;;;1.60;;
75758;SDS011;64371;47.566;19.086;2023-07-29T08:51:45;2.63;;;1.42;;
75758;SDS011;64371;47.566;19.086;2023-07-29T08:54:50;1.77;;;1.40;;
75758;SDS011;64371;47.566;19.086;2023-07-29T08:57:54;2.03;;;1.35;;
75758;SDS011;64371;47.566;19.086;2023-07-29T09:00:57;1.70;;;1.60;;
75758;SDS011;64371;47.566;19.086;2023-07-29T09:04:00;2.28;;;1.90;;
75758;SDS011;64371;47.566;19.086;2023-07-29T09:07:02;1.63;;;1.50;;
75758;SDS011;64371;47.566;19.086;2023-07-29T09:10:08;2.10;;;1.70;;
75758;SDS011;64371;47.566;19.086;2023-07-29T09:13:11;1.80;;;1.60;;
75758;SDS011;64371;47.566;19.086;2023-07-29T09:16:14;1.70;;;1.60;;
75758;SDS011;64371;47.566;19.086;2023-07-29T09:19:19;1.83;;;1.73;;
75758;SDS011;64371;47.566;19.086;2023-07-29T09:22:21;2.13;;;1.80;;
75758;SDS011;64371;47.566;19.086;2023-07-29T09:25:24;2.77;;;1.60;;
75758;SDS011;64371;47.566;19.086;2023-07-29T09:28:28;1.98;;;1.75;;
75758;SDS011;64371;47.566;19.086;2023-07-29T09:31:35;2.20;;;1.70;;
75758;SDS011;64371;47.566;19.086;2023-07-29T09:34:41;6.15;;;1.80;;
75758;SDS011;64371;47.566;19.086;2023-07-29T09:37:43;3.85;;;1.85;;
75758;SDS011;64371;47.566;19.086;2023-07-29T09:40:46;1.80;;;1.70;;
75758;SDS011;64371;47.566;19.086;2023-07-29T09:43:51;1.52;;;1.42;;
75758;SDS011;64371;47.566;19.086;2023-07-29T09:46:58;1.70;;;1.60;;
75758;SDS011;64371;47.566;19.086;2023-07-29T09:50:01;1.60;;;1.20;;
75758;SDS011;64371;47.566;19.086;2023-07-29T09:53:03;2.45;;;1.23;;
75758;SDS011;64371;47.566;19.086;2023-07-29T09:56:06;3.70;;;1.43;;
75758;SDS011;64371;47.566;19.086;2023-07-29T09:59:08;5.45;;;1.65;;
75758;SDS011;64371;47.566;19.086;2023-07-29T10:02:15;2.42;;;1.50;;
75758;SDS011;64371;47.566;19.086;2023-07-29T10:05:19;1.60;;;1.50;;
75758;SDS011;64371;47.566;19.086;2023-07-29T10:08:22;1.63;;;1.48;;
75758;SDS011;64371;47.566;19.086;2023-07-29T10:11:26;2.07;;;1.43;;
75758;SDS011;64371;47.566;19.086;2023-07-29T10:14:29;1.55;;;1.45;;
75758;SDS011;64371;47.566;19.086;2023-07-29T10:17:34;2.03;;;1.30;;
75758;SDS011;64371;47.566;19.086;2023-07-29T10:20:38;1.40;;;1.20;;
75758;SDS011;64371;47.566;19.086;2023-07-29T10:23:42;1.85;;;1.63;;
75758;SDS011;64371;47.566;19.086;2023-07-29T10:26:51;2.07;;;1.50;;
75758;SDS011;64371;47.566;19.086;2023-07-29T10:29:54;2.60;;;1.50;;
75758;SDS011;64371;47.566;19.086;2023-07-29T10:32:58;2.63;;;1.50;;
75758;SDS011;64371;47.566;19.086;2023-07-29T10:36:03;2.65;;;1.40;;
75758;SDS011;64371;47.566;19.086;2023-07-29T10:39:07;2.15;;;1.63;;
75758;SDS011;64371;47.566;19.086;2023-07-29T10:42:09;4.03;;;1.40;;
75758;SDS011;64371;47.566;19.086;2023-07-29T10:45:16;2.17;;;1.40;;
75758;SDS011;64371;47.566;19.086;2023-07-29T10:51:35;1.60;;;1.38;;
75758;SDS011;64371;47.566;19.086;2023-07-29T10:54:45;3.28;;;1.25;;
75758;SDS011;64371;47.566;19.086;2023-07-29T10:57:49;3.40;;;1.40;;
75758;SDS011;64371;47.566;19.086;2023-07-29T11:00:52;2.05;;;1.20;;
75758;SDS011;64371;47.566;19.086;2023-07-29T11:04:01;1.90;;;1.50;;
75758;SDS011;64371;47.566;19.086;2023-07-29T11:07:26;2.80;;;1.15;;
75758;SDS011;64371;47.566;19.086;2023-07-29T11:10:29;1.60;;;1.38;;
75758;SDS011;64371;47.566;19.086;2023-07-29T11:13:45;7.30;;;6.17;;
75758;SDS011;64371;47.566;19.086;2023-07-29T11:16:47;1.48;;;1.38;;
75758;SDS011;64371;47.566;19.086;2023-07-29T11:19:51;1.95;;;1.75;;
75758;SDS011;64371;47.566;19.086;2023-07-29T11:22:55;4.22;;;1.50;;
75758;SDS011;64371;47.566;19.086;2023-07-29T11:25:59;1.60;;;1.50;;
75758;SDS011;64371;47.566;19.086;2023-07-29T11:29:03;1.63;;;1.30;;
75758;SDS011;64371;47.566;19.086;2023-07-29T11:32:08;1.52;;;1.30;;
75758;SDS011;64371;47.566;19.086;2023-07-29T11:35:12;1.52;;;1.42;;
75758;SDS011;64371;47.566;19.086;2023-07-29T11:38:17;1.75;;;1.50;;
75758;SDS011;64371;47.566;19.086;2023-07-29T11:41:22;1.77;;;1.50;;
75758;SDS011;64371;47.566;19.086;2023-07-29T11:44:24;1.97;;;1.60;;
75758;SDS011;64371;47.566;19.086;2023-07-29T11:47:27;1.60;;;1.50;;
75758;SDS011;64371;47.566;19.086;2023-07-29T11:50:30;1.75;;;1.65;;
75758;SDS011;64371;47.566;19.086;2023-07-29T11:53:32;3.05;;;1.60;;
75758;SDS011;64371;47.566;19.086;2023-07-29T11:56:34;2.00;;;1.80;;
75758;SDS011;64371;47.566;19.086;2023-07-29T11:59:38;1.80;;;1.40;;
75758;SDS011;64371;47.566;19.086;2023-07-29T12:02:42;2.45;;;1.45;;
75758;SDS011;64371;47.566;19.086;2023-07-29T12:05:48;1.98;;;1.77;;
75758;SDS011;64371;47.566;19.086;2023-07-29T12:08:51;2.58;;;2.15;;
75758;SDS011;64371;47.566;19.086;2023-07-29T12:11:55;2.53;;;1.60;;
75758;SDS011;64371;47.566;19.086;2023-07-29T12:14:57;1.93;;;1.40;;
75758;SDS011;64371;47.566;19.086;2023-07-29T12:18:00;1.73;;;1.50;;
75758;SDS011;64371;47.566;19.086;2023-07-29T12:21:03;2.92;;;1.88;;
75758;SDS011;64371;47.566;19.086;2023-07-29T12:24:05;1.65;;;1.50;;
75758;SDS011;64371;47.566;19.086;2023-07-29T12:27:11;1.77;;;1.67;;
75758;SDS011;64371;47.566;19.086;2023-07-29T12:30:15;2.40;;;1.43;;
75758;SDS011;64371;47.566;19.086;2023-07-29T12:33:31;2.88;;;1.73;;
75758;SDS011;64371;47.566;19.086;2023-07-29T12:36:48;2.03;;;1.70;;
75758;SDS011;64371;47.566;19.086;2023-07-29T12:39:51;2.47;;;1.40;;
75758;SDS011;64371;47.566;19.086;2023-07-29T12:42:53;2.85;;;1.50;;
75758;SDS011;64371;47.566;19.086;2023-07-29T12:45:57;3.77;;;1.77;;
75758;SDS011;64371;47.566;19.086;2023-07-29T12:48:59;2.42;;;1.80;;
75758;SDS011;64371;47.566;19.086;2023-07-29T12:52:02;1.92;;;1.60;;
75758;SDS011;64371;47.566;19.086;2023-07-29T12:55:05;2.22;;;1.60;;
75758;SDS011;64371;47.566;19.086;2023-07-29T12:58:10;2.15;;;1.70;;
75758;SDS011;64371;47.566;19.086;2023-07-29T13:01:13;2.93;;;1.40;;
75758;SDS011;64371;47.566;19.086;2023-07-29T13:04:19;1.63;;;1.52;;
75758;SDS011;64371;47.566;19.086;2023-07-29T13:07:22;4.85;;;1.60;;
75758;SDS011;64371;47.566;19.086;2023-07-29T13:10:24;1.95;;;1.70;;
75758;SDS011;64371;47.566;19.086;2023-07-29T13:13:26;1.65;;;1.48;;
75758;SDS011;64371;47.566;19.086;2023-07-29T13:16:29;1.50;;;1.40;;
75758;SDS011;64371;47.566;19.086;2023-07-29T13:19:31;2.35;;;1.70;;
75758;SDS011;64371;47.566;19.086;2023-07-29T13:22:34;1.85;;;1.75;;
75758;SDS011;64371;47.566;19.086;2023-07-29T13:25:36;2.42;;;1.65;;
75758;SDS011;64371;47.566;19.086;2023-07-29T13:28:38;2.35;;;1.70;;
75758;SDS011;64371;47.566;19.086;2023-07-29T13:31:41;2.27;;;1.67;;
75758;SDS011;64371;47.566;19.086;2023-07-29T13:34:43;2.00;;;1.80;;
75758;SDS011;64371;47.566;19.086;2023-07-29T13:37:46;2.22;;;1.95;;
75758;SDS011;64371;47.566;19.086;2023-07-29T13:40:48;2.17;;;1.88;;
75758;SDS011;64371;47.566;19.086;2023-07-29T13:43:53;2.10;;;1.80;;
75758;SDS011;64371;47.566;19.086;2023-07-29T13:46:55;2.17;;;1.60;;
75758;SDS011;64371;47.566;19.086;2023-07-29T13:49:57;1.80;;;1.60;;
75758;SDS011;64371;47.566;19.086;2023-07-29T13:53:01;1.95;;;1.75;;
75758;SDS011;64371;47.566;19.086;2023-07-29T13:56:04;1.75;;;1.55;;
75758;SDS011;64371;47.566;19.086;2023-07-29T13:59:07;1.90;;;1.70;;
75758;SDS011;64371;47.566;19.086;2023-07-29T14:02:10;1.47;;;1.23;;
75758;SDS011;64371;47.566;19.086;2023-07-29T14:05:12;1.60;;;1.30;;
75758;SDS011;64371;47.566;19.086;2023-07-29T14:08:16;2.10;;;1.60;;
75758;SDS011;64371;47.566;19.086;2023-07-29T14:11:19;2.05;;;1.20;;
75758;SDS011;64371;47.566;19.086;2023-07-29T14:14:22;2.55;;;1.40;;
75758;SDS011;64371;47.566;19.086;2023-07-29T14:17:24;1.47;;;1.17;;
75758;SDS011;64371;47.566;19.086;2023-07-29T14:20:27;1.88;;;1.50;;
75758;SDS011;64371;47.566;19.086;2023-07-29T14:23:29;1.63;;;1.52;;
75758;SDS011;64371;47.566;19.086;2023-07-29T14:26:33;2.13;;;1.92;;
75758;SDS011;64371;47.566;19.086;2023-07-29T14:29:35;1.58;;;1.30;;
75758;SDS011;64371;47.566;19.086;2023-07-29T14:32:37;2.10;;;1.50;;
75758;SDS011;64371;47.566;19.086;2023-07-29T14:35:40;1.85;;;1.50;;
75758;SDS011;64371;47.566;19.086;2023-07-29T14:38:42;1.85;;;1.63;;
75758;SDS011;64371;47.566;19.086;2023-07-29T14:41:45;2.65;;;2.30;;
75758;SDS011;64371;47.566;19.086;2023-07-29T14:44:48;1.60;;;1.50;;
75758;SDS011;64371;47.566;19.086;2023-07-29T14:47:50;2.37;;;1.60;;
75758;SDS011;64371;47.566;19.086;2023-07-29T14:50:53;1.70;;;1.60;;
75758;SDS011;64371;47.566;19.086;2023-07-29T14:53:55;1.98;;;1.70;;
75758;SDS011;64371;47.566;19.086;2023-07-29T14:56:58;2.60;;;1.77;;
75758;SDS011;64371;47.566;19.086;2023-07-29T15:00:00;2.97;;;1.75;;
75758;SDS011;64371;47.566;19.086;2023-07-29T15:03:02;1.63;;;1.50;;
75758;SDS011;64371;47.566;19.086;2023-07-29T15:06:05;2.80;;;2.17;;
75758;SDS011;64371;47.566;19.086;2023-07-29T15:09:07;2.20;;;2.00;;
75758;SDS011;64371;47.566;19.086;2023-07-29T15:12:10;2.88;;;1.83;;
75758;SDS011;64371;47.566;19.086;2023-07-29T15:15:12;2.17;;;1.98;;
75758;SDS011;64371;47.566;19.086;2023-07-29T15:18:15;2.13;;;1.87;;
75758;SDS011;64371;47.566;19.086;2023-07-29T15:21:17;2.45;;;1.70;;
75758;SDS011;64371;47.566;19.086;2023-07-29T15:24:20;2.38;;;1.88;;
75758;SDS011;64371;47.566;19.086;2023-07-29T15:27:22;2.67;;;1.77;;
75758;SDS011;64371;47.566;19.086;2023-07-29T15:30:25;1.98;;;1.52;;
75758;SDS011;64371;47.566;19.086;2023-07-29T15:33:27;1.87;;;1.60;;
75758;SDS011;64371;47.566;19.086;2023-07-29T15:36:29;3.08;;;1.80;;
75758;SDS011;64371;47.566;19.086;2023-07-29T15:39:32;2.88;;;1.90;;
75758;SDS011;64371;47.566;19.086;2023-07-29T15:42:34;4.47;;;1.90;;
75758;SDS011;64371;47.566;19.086;2023-07-29T15:45:37;3.00;;;1.70;;
75758;SDS011;64371;47.566;19.086;2023-07-29T15:48:40;1.77;;;1.67;;
75758;SDS011;64371;47.566;19.086;2023-07-29T15:51:43;1.60;;;1.45;;
75758;SDS011;64371;47.566;19.086;2023-07-29T15:54:45;1.90;;;1.60;;
75758;SDS011;64371;47.566;19.086;2023-07-29T15:57:47;2.30;;;1.50;;
75758;SDS011;64371;47.566;19.086;2023-07-29T16:00:51;2.30;;;1.77;;
75758;SDS011;64371;47.566;19.086;2023-07-29T16:03:53;1.70;;;1.37;;
75758;SDS011;64371;47.566;19.086;2023-07-29T16:06:56;2.22;;;1.70;;
75758;SDS011;64371;47.566;19.086;2023-07-29T16:09:58;2.97;;;1.83;;
75758;SDS011;64371;47.566;19.086;2023-07-29T16:13:00;1.90;;;1.70;;
75758;SDS011;64371;47.566;19.086;2023-07-29T16:16:04;3.33;;;1.98;;
75758;SDS011;64371;47.566;19.086;2023-07-29T16:19:08;1.97;;;1.63;;
75758;SDS011;64371;47.566;19.086;2023-07-29T16:22:11;2.28;;;2.08;;
75758;SDS011;64371;47.566;19.086;2023-07-29T16:25:13;4.95;;;2.13;;
75758;SDS011;64371;47.566;19.086;2023-07-29T16:28:15;2.92;;;1.55;;
75758;SDS011;64371;47.566;19.086;2023-07-29T16:31:18;2.40;;;1.92;;
75758;SDS011;64371;47.566;19.086;2023-07-29T16:34:21;1.90;;;1.60;;
75758;SDS011;64371;47.566;19.086;2023-07-29T16:37:24;3.30;;;1.90;;
75758;SDS011;64371;47.566;19.086;2023-07-29T16:40:26;2.30;;;1.80;;
75758;SDS011;64371;47.566;19.086;2023-07-29T16:43:28;2.60;;;2.00;;
75758;SDS011;64371;47.566;19.086;2023-07-29T16:46:32;3.08;;;1.88;;
75758;SDS011;64371;47.566;19.086;2023-07-29T16:49:38;5.40;;;2.53;;
75758;SDS011;64371;47.566;19.086;2023-07-29T16:52:40;5.18;;;2.30;;
75758;SDS011;64371;47.566;19.086;2023-07-29T16:55:43;3.67;;;2.10;;
75758;SDS011;64371;47.566;19.086;2023-07-29T16:58:45;3.65;;;2.10;;
75758;SDS011;64371;47.566;19.086;2023-07-29T17:01:47;3.85;;;2.30;;
75758;SDS011;64371;47.566;19.086;2023-07-29T17:04:50;5.10;;;2.37;;
75758;SDS011;64371;47.566;19.086;2023-07-29T17:07:52;3.53;;;2.53;;
75758;SDS011;64371;47.566;19.086;2023-07-29T17:10:55;5.32;;;2.40;;
75758;SDS011;64371;47.566;19.086;2023-07-29T17:13:57;3.17;;;1.80;;
75758;SDS011;64371;47.566;19.086;2023-07-29T17:17:01;4.38;;;2.10;;
75758;SDS011;64371;47.566;19.086;2023-07-29T17:20:03;3.33;;;2.30;;
75758;SDS011;64371;47.566;19.086;2023-07-29T17:23:06;2.63;;;1.73;;
75758;SDS011;64371;47.566;19.086;2023-07-29T17:26:08;3.95;;;1.90;;
75758;SDS011;64371;47.566;19.086;2023-07-29T17:29:11;4.97;;;2.03;;
75758;SDS011;64371;47.566;19.086;2023-07-29T17:32:13;5.30;;;1.80;;
75758;SDS011;64371;47.566;19.086;2023-07-29T17:35:16;3.03;;;2.10;;
75758;SDS011;64371;47.566;19.086;2023-07-29T17:38:19;3.63;;;2.03;;
75758;SDS011;64371;47.566;19.086;2023-07-29T17:41:22;2.25;;;1.90;;
75758;SDS011;64371;47.566;19.086;2023-07-29T17:44:24;2.67;;;1.90;;
75758;SDS011;64371;47.566;19.086;2023-07-29T17:47:26;7.55;;;2.20;;
75758;SDS011;64371;47.566;19.086;2023-07-29T17:50:29;3.43;;;2.00;;
75758;SDS011;64371;47.566;19.086;2023-07-29T17:53:34;2.40;;;1.52;;
75758;SDS011;64371;47.566;19.086;2023-07-29T17:56:36;2.58;;;1.40;;
75758;SDS011;64371;47.566;19.086;2023-07-29T17:59:39;1.83;;;1.30;;
75758;SDS011;64371;47.566;19.086;2023-07-29T18:02:41;2.03;;;1.48;;
75758;SDS011;64371;47.566;19.086;2023-07-29T18:05:44;2.67;;;1.50;;
75758;SDS011;64371;47.566;19.086;2023-07-29T18:08:47;8.27;;;1.88;;
75758;SDS011;64371;47.566;19.086;2023-07-29T18:11:49;4.57;;;1.70;;
75758;SDS011;64371;47.566;19.086;2023-07-29T18:14:51;6.20;;;1.67;;